Time;durP1;ratioP1;P1;durP2;ratioP2;P2;SDS_P1;SDS_P2;PMS_P1;PMS_P2;Temp;Humidity;BMP_temperature;BMP_pressure;BME280_temperature;BME280_humidity;BME280_pressure;Samples;Min_cycle;Max_cycle;Signal;HPM_P1;HPM_P2
2024/01/18 00:01:09;;;;;;;;;;;;;;;-1.33;100.00;99326.22;6239109;23;19907;-74
2024/01/18 00:03:38;;;;;;;;;;;;;;;-1.33;100.00;99331.31;6215619;23;19903;-74
2024/01/18 00:06:04;;;;;;;;;;;;;;;-1.34;100.00;99321.91;6240774;23;19903;-74
2024/01/18 00:08:29;;;;;;;;;;;;;;;-1.33;100.00;99325.31;6242129;23;19903;-74
2024/01/18 00:10:54;;;;;;;;;;;;;;;-1.33;100.00;99325.31;6240838;23;20322;-74
2024/01/18 00:13:20;;;;;;;;;;;;;;;-1.35;100.00;99334.59;6211599;23;20435;-74
2024/01/18 00:15:45;;;;;;;;;;;;;;;-1.37;100.00;99339.66;6241567;23;20322;-74
2024/01/18 00:18:11;;;;;;;;;;;;;;;-1.36;100.00;99359.28;6240299;23;19914;-74
2024/01/18 00:20:36;;;;;;;;;;;;;;;-1.36;100.00;99349.06;6239633;23;19907;-74
2024/01/18 00:23:01;;;;;;;;;;;;;;;-1.36;100.00;99345.63;6242195;23;20345;-74
2024/01/18 00:25:26;;;;;;;;;;;;;;;-1.38;100.00;99358.31;6215040;23;19904;-74
2024/01/18 00:27:51;;;;;;;;;;;;;;;-1.38;100.00;99363.44;6242120;23;19934;-74
2024/01/18 00:30:18;;;;;;;;;;;;;;;-1.36;100.00;99354.19;6241241;23;19903;-74
2024/01/18 00:32:43;;;;;;;;;;;;;;;-1.37;100.00;99349.88;6242519;23;19907;-74
2024/01/18 00:35:09;;;;;;;;;;;;;;;-1.36;100.00;99353.28;6214436;23;20019;-74
2024/01/18 00:37:34;;;;;;;;;;;;;;;-1.39;100.00;99356.59;6242927;23;19907;-74
2024/01/18 00:39:59;;;;;;;;;;;;;;;-1.38;100.00;99365.97;6240814;23;19904;-74
2024/01/18 00:42:24;;;;;;;;;;;;;;;-1.38;100.00;99365.97;6223793;23;19915;-74
2024/01/18 00:44:50;;;;;;;;;;;;;;;-1.39;100.00;99366.81;6241697;23;20330;-74
2024/01/18 00:47:15;;;;;;;;;;;;;;;-1.40;100.00;99367.59;6242039;23;19961;-74
2024/01/18 00:49:42;;;;;;;;;;;;;;;-1.40;100.00;99365.91;6240397;23;20337;-74
2024/01/18 00:52:08;;;;;;;;;;;;;;;-1.39;100.00;99369.38;6242097;23;19914;-74
2024/01/18 00:54:33;;;;;;;;;;;;;;;-1.40;100.00;99376.13;6240104;22;19903;-74
2024/01/18 00:56:58;;;;;;;;;;;;;;;-1.41;100.00;99387.16;6242420;23;19914;-74
2024/01/18 00:59:24;;;;;;;;;;;;;;;-1.40;100.00;99375.28;6241393;23;19909;-74
2024/01/18 01:01:49;;;;;;;;;;;;;;;-1.39;100.00;99384.69;6242038;23;19990;-74
2024/01/18 01:04:15;;;;;;;;;;;;;;;-1.41;100.00;99384.59;6240158;23;19961;-74
2024/01/18 01:06:40;;;;;;;;;;;;;;;-1.41;100.00;99391.38;6242662;23;19918;-74
2024/01/18 01:09:06;;;;;;;;;;;;;;;-1.42;100.00;99394.75;6241952;23;19903;-74
2024/01/18 01:11:31;;;;;;;;;;;;;;;-1.43;100.00;99396.44;6242094;23;19911;-74
2024/01/18 01:13:56;;;;;;;;;;;;;;;-1.43;100.00;99395.56;6243106;23;19978;-74
2024/01/18 01:16:22;;;;;;;;;;;;;;;-1.42;100.00;99397.28;6244199;23;20326;-74
2024/01/18 01:18:47;;;;;;;;;;;;;;;-1.44;100.00;99392.13;6241907;23;20245;-74
2024/01/18 01:21:12;;;;;;;;;;;;;;;-1.45;100.00;99392.03;6242217;23;19907;-74
2024/01/18 01:23:41;;;;;;;;;;;;;;;-1.47;100.00;99398.78;6243564;23;19969;-74
2024/01/18 01:26:08;;;;;;;;;;;;;;;-1.50;100.00;99393.53;6244615;23;19978;-74
2024/01/18 01:28:33;;;;;;;;;;;;;;;-1.52;100.00;99402.78;6244023;23;19974;-74
2024/01/18 01:30:58;;;;;;;;;;;;;;;-1.53;100.00;99406.16;6242437;23;19943;-74
2024/01/18 01:33:24;;;;;;;;;;;;;;;-1.55;100.00;99400.97;6244223;23;19903;-74
2024/01/18 01:35:49;;;;;;;;;;;;;;;-1.54;100.00;99410.34;6244361;23;19910;-74
2024/01/18 01:38:14;;;;;;;;;;;;;;;-1.55;100.00;99412.84;6244287;23;19907;-74
2024/01/18 01:40:39;;;;;;;;;;;;;;;-1.58;100.00;99417.00;6243003;23;19934;-74
2024/01/18 01:43:05;;;;;;;;;;;;;;;-1.58;100.00;99421.22;6266384;22;20292;-74
2024/01/18 01:45:31;;;;;;;;;;;;;;;-1.60;100.00;99418.59;6273434;22;20584;-74
2024/01/18 01:47:56;;;;;;;;;;;;;;;-1.60;100.00;99426.25;6273702;22;19982;-74
2024/01/18 01:50:22;;;;;;;;;;;;;;;-1.61;100.00;99421.97;6272578;22;19942;-74
2024/01/18 01:52:47;;;;;;;;;;;;;;;-1.61;100.00;99421.97;6274487;22;19913;-74
2024/01/18 01:55:13;;;;;;;;;;;;;;;-1.62;100.00;99434.66;6273992;22;20338;-74
2024/01/18 01:57:39;;;;;;;;;;;;;;;-1.62;100.00;99427.88;6273534;22;19911;-74
2024/01/18 02:00:04;;;;;;;;;;;;;;;-1.62;100.00;99434.66;6274887;22;19910;-74
2024/01/18 02:02:30;;;;;;;;;;;;;;;-1.64;100.00;99426.91;6273130;22;19958;-74
2024/01/18 02:04:55;;;;;;;;;;;;;;;-1.64;100.00;99426.03;6274351;22;19910;-74
2024/01/18 02:07:22;;;;;;;;;;;;;;;-1.66;100.00;99423.41;6273594;22;20333;-74
2024/01/18 02:09:47;;;;;;;;;;;;;;;-1.66;100.00;99425.09;6244033;22;19974;-74
2024/01/18 02:12:13;;;;;;;;;;;;;;;-1.67;100.00;99425.88;6273721;22;20329;-74
2024/01/18 02:14:38;;;;;;;;;;;;;;;-1.68;100.00;99424.13;6246077;22;20037;-74
2024/01/18 02:17:06;;;;;;;;;;;;;;;-1.68;100.00;99424.13;6273167;22;19903;-74
2024/01/18 02:19:31;;;;;;;;;;;;;;;-1.69;100.00;99436.03;6274161;22;20342;-74
2024/01/18 02:21:57;;;;;;;;;;;;;;;-1.70;100.00;99425.75;6273082;22;20365;-74
2024/01/18 02:24:30;;;;;;;;;;;;;;;-1.71;100.00;99423.97;6274619;22;19903;-74
2024/01/18 02:26:56;;;;;;;;;;;;;;;-1.72;100.00;99427.31;6272472;22;19997;-74
2024/01/18 02:29:21;;;;;;;;;;;;;;;-1.75;100.00;99428.94;6273995;22;19937;-74
2024/01/18 02:31:46;;;;;;;;;;;;;;;-1.76;100.00;99422.06;6246723;22;19957;-74
2024/01/18 02:34:14;;;;;;;;;;;;;;;-1.77;100.00;99427.09;6244513;22;19914;-74
2024/01/18 02:36:39;;;;;;;;;;;;;;;-1.77;100.00;99424.56;6272929;22;19929;-74
2024/01/18 02:39:04;;;;;;;;;;;;;;;-1.77;100.00;99434.75;6274174;22;20319;-74
2024/01/18 02:41:31;;;;;;;;;;;;;;;-1.76;100.00;99436.53;6272309;22;19911;-74
2024/01/18 02:43:57;;;;;;;;;;;;;;;-1.78;100.00;99436.44;6273757;22;20477;-74
2024/01/18 02:46:23;;;;;;;;;;;;;;;-1.81;100.00;99438.84;6272449;22;19918;-74
2024/01/18 02:48:48;;;;;;;;;;;;;;;-1.82;100.00;99441.34;6245343;22;19907;-74
2024/01/18 02:51:13;;;;;;;;;;;;;;;-1.84;100.00;99445.47;6273305;22;19907;-74
2024/01/18 02:53:38;;;;;;;;;;;;;;;-1.84;100.00;99445.47;6273268;22;19910;-74
2024/01/18 02:56:05;;;;;;;;;;;;;;;-1.84;100.00;99445.47;6245354;22;19903;-74
2024/01/18 02:58:30;;;;;;;;;;;;;;;-1.83;100.00;99444.69;6246032;22;20385;-74
2024/01/18 03:00:55;;;;;;;;;;;;;;;-1.83;100.00;99448.09;6273671;22;19956;-74
2024/01/18 03:03:20;;;;;;;;;;;;;;;-1.81;100.00;99450.72;6272951;22;19942;-74
2024/01/18 03:05:46;;;;;;;;;;;;;;;-1.80;100.00;99447.38;6271559;22;19960;-74
2024/01/18 03:08:11;;;;;;;;;;;;;;;-1.82;100.00;99447.31;6246106;22;20037;-74
2024/01/18 03:10:37;;;;;;;;;;;;;;;-1.81;100.00;99451.63;6246250;22;19903;-74
2024/01/18 03:13:02;;;;;;;;;;;;;;;-1.80;100.00;99452.47;6272773;22;19974;-74
2024/01/18 03:15:27;;;;;;;;;;;;;;;-1.81;100.00;99461.84;6272620;22;19907;-74
2024/01/18 03:17:52;;;;;;;;;;;;;;;-1.79;100.00;99459.34;6246430;22;19903;-74
2024/01/18 03:20:17;;;;;;;;;;;;;;;-1.80;100.00;99455.03;6245345;22;20332;-74
2024/01/18 03:22:43;;;;;;;;;;;;;;;-1.81;100.00;99453.28;6273383;22;19903;-74
2024/01/18 03:25:08;;;;;;;;;;;;;;;-1.83;100.00;99455.75;6242132;22;19976;-74
2024/01/18 03:27:34;;;;;;;;;;;;;;;-1.82;100.00;99466.88;6246039;22;19948;-74
2024/01/18 03:29:59;;;;;;;;;;;;;;;-1.82;100.00;99456.66;6272530;22;19982;-74
2024/01/18 03:32:24;;;;;;;;;;;;;;;-1.82;100.00;99457.50;6273754;22;19910;-74
2024/01/18 03:34:50;;;;;;;;;;;;;;;-1.82;100.00;99460.06;6272498;22;19957;-74
2024/01/18 03:37:15;;;;;;;;;;;;;;;-1.81;100.00;99463.50;6244781;22;19911;-74
2024/01/18 03:39:40;;;;;;;;;;;;;;;-1.81;100.00;99466.03;6272338;22;19907;-74
2024/01/18 03:42:05;;;;;;;;;;;;;;;-1.81;100.00;99463.50;6272008;22;19956;-74
2024/01/18 03:44:33;;;;;;;;;;;;;;;-1.84;100.00;99465.88;6273408;22;19934;-74
2024/01/18 03:46:59;;;;;;;;;;;;;;;-1.86;100.00;99477.72;6244241;22;19994;-74
2024/01/18 03:49:25;;;;;;;;;;;;;;;-1.86;100.00;99477.72;6272874;22;19977;-74
2024/01/18 03:51:50;;;;;;;;;;;;;;;-1.89;100.00;99477.56;6272428;22;19988;-74
2024/01/18 03:54:15;;;;;;;;;;;;;;;-1.93;100.00;99484.16;6272632;22;19954;-74
2024/01/18 03:56:40;;;;;;;;;;;;;;;-1.96;100.00;99486.56;6272304;22;19910;-74
2024/01/18 03:59:06;;;;;;;;;;;;;;;-1.97;100.00;99493.34;6272489;22;19903;-74
2024/01/18 04:01:32;;;;;;;;;;;;;;;-1.97;100.00;99489.91;6273601;22;19907;-74
2024/01/18 04:03:57;;;;;;;;;;;;;;;-1.99;100.00;99489.84;6245452;22;19907;-74
2024/01/18 04:06:22;;;;;;;;;;;;;;;-2.00;100.00;99503.41;6273331;22;19903;-74
2024/01/18 04:08:48;;;;;;;;;;;;;;;-2.02;100.00;99504.13;6244162;22;19964;-74
2024/01/18 04:11:13;;;;;;;;;;;;;;;-2.04;100.00;99501.50;6272953;22;19903;-74
2024/01/18 04:13:38;;;;;;;;;;;;;;;-2.06;100.00;99497.97;6272267;22;19913;-74
2024/01/18 04:16:04;;;;;;;;;;;;;;;-2.12;100.00;99490.00;6273235;22;19903;-74
2024/01/18 04:18:30;;;;;;;;;;;;;;;-2.15;100.00;99493.28;6273060;22;19907;-74
2024/01/18 04:20:55;;;;;;;;;;;;;;;-2.18;100.00;99505.00;6273749;22;19910;-74
2024/01/18 04:23:21;;;;;;;;;;;;;;;-2.20;100.00;99506.56;6273378;22;20362;-74
2024/01/18 04:25:47;;;;;;;;;;;;;;;-2.23;100.00;99507.31;6273486;22;20314;-74
2024/01/18 04:28:12;;;;;;;;;;;;;;;-2.24;100.00;99499.59;6272566;22;19907;-74
2024/01/18 04:30:38;;;;;;;;;;;;;;;-2.24;100.00;99510.66;6272930;22;19953;-74
2024/01/18 04:33:03;;;;;;;;;;;;;;;-2.24;100.00;99509.78;6273517;22;19907;-74
2024/01/18 04:35:28;;;;;;;;;;;;;;;-2.27;100.00;99513.91;6244773;22;19922;-74
2024/01/18 04:37:53;;;;;;;;;;;;;;;-2.29;100.00;99512.97;6271919;22;20215;-74
2024/01/18 04:40:19;;;;;;;;;;;;;;;-2.31;100.00;99529.84;6245851;22;19903;-74
2024/01/18 04:42:44;;;;;;;;;;;;;;;-2.34;100.00;99522.03;6272920;22;19917;-74
2024/01/18 04:45:09;;;;;;;;;;;;;;;-2.37;100.00;99537.19;6245863;22;19929;-74
2024/01/18 04:47:35;;;;;;;;;;;;;;;-2.37;100.00;99533.75;6274071;22;19934;-74
2024/01/18 04:50:00;;;;;;;;;;;;;;;-2.40;100.00;99541.22;6274418;22;19907;-74
2024/01/18 04:52:25;;;;;;;;;;;;;;;-2.44;100.00;99545.28;6273800;22;20238;-74
2024/01/18 04:54:51;;;;;;;;;;;;;;;-2.50;100.00;99553.50;6247881;22;20242;-74
2024/01/18 04:57:16;;;;;;;;;;;;;;;-2.52;100.00;99556.75;6247038;22;19976;-74
2024/01/18 04:59:42;;;;;;;;;;;;;;;-2.57;100.00;99559.03;6246933;22;19911;-74
2024/01/18 05:02:07;;;;;;;;;;;;;;;-2.61;100.00;99562.22;6274345;22;19942;-74
2024/01/18 05:04:32;;;;;;;;;;;;;;;-2.65;100.00;99563.72;6275062;22;19909;-74
2024/01/18 05:06:57;;;;;;;;;;;;;;;-2.69;100.00;99564.34;6273686;22;20247;-74
2024/01/18 05:09:23;;;;;;;;;;;;;;;-2.71;100.00;99563.41;6273917;22;20211;-74
2024/01/18 05:11:48;;;;;;;;;;;;;;;-2.72;100.00;99561.63;6274422;22;20102;-74
2024/01/18 05:14:13;;;;;;;;;;;;;;;-2.74;100.00;99570.84;6246177;22;20234;-73
2024/01/18 05:16:43;;;;;;;;;;;;;;;-2.77;100.00;99560.50;6274768;22;19914;-74
2024/01/18 05:19:08;;;;;;;;;;;;;;;-2.83;100.00;99566.13;6247722;22;19906;-74
2024/01/18 05:21:33;;;;;;;;;;;;;;;-2.90;100.00;99568.25;6274625;22;19907;-74
2024/01/18 05:23:59;;;;;;;;;;;;;;;-2.93;100.00;99570.63;6274160;22;19903;-74
2024/01/18 05:26:24;;;;;;;;;;;;;;;-3.00;100.00;99572.84;6274919;22;19973;-74
2024/01/18 05:28:49;;;;;;;;;;;;;;;-3.04;100.00;99576.00;6274698;22;19903;-74
2024/01/18 05:31:14;;;;;;;;;;;;;;;-3.09;100.00;99571.44;6246983;22;19945;-74
2024/01/18 05:33:40;;;;;;;;;;;;;;;-3.17;100.00;99578.63;6273651;22;19909;-74
2024/01/18 05:36:05;;;;;;;;;;;;;;;-3.23;100.00;99583.34;6274209;22;19911;-74
2024/01/18 05:38:33;;;;;;;;;;;;;;;-3.29;100.00;99590.66;6274495;22;20291;-73
2024/01/18 05:40:58;;;;;;;;;;;;;;;-3.36;100.00;99592.84;6247573;22;19935;-73
2024/01/18 05:43:23;;;;;;;;;;;;;;;-3.37;100.00;99596.19;6273555;22;19965;-74
2024/01/18 05:45:49;;;;;;;;;;;;;;;-3.37;100.00;99598.72;6272712;22;20254;-73
2024/01/18 05:48:14;;;;;;;;;;;;;;;-3.37;100.00;99597.84;6273176;22;19903;-74
2024/01/18 05:50:39;;;;;;;;;;;;;;;-3.38;100.00;99609.69;6273761;22;19915;-73
2024/01/18 05:53:05;;;;;;;;;;;;;;;-3.37;100.00;99605.50;6246108;22;19915;-74
2024/01/18 05:55:31;;;;;;;;;;;;;;;-3.39;100.00;99610.50;6273404;22;20031;-74
2024/01/18 05:57:57;;;;;;;;;;;;;;;-3.42;100.00;99617.94;6274563;22;19911;-73
2024/01/18 06:00:24;;;;;;;;;;;;;;;-3.43;100.00;99626.38;6246993;22;20514;-73
2024/01/18 06:02:49;;;;;;;;;;;;;;;-3.47;100.00;99621.03;6274169;22;19911;-74
2024/01/18 06:05:15;;;;;;;;;;;;;;;-3.52;100.00;99621.63;6273880;22;20246;-74
2024/01/18 06:07:40;;;;;;;;;;;;;;;-3.54;100.00;99629.94;6274411;22;19911;-74
2024/01/18 06:10:06;;;;;;;;;;;;;;;-3.58;100.00;99628.88;6246232;22;19903;-73
2024/01/18 06:12:32;;;;;;;;;;;;;;;-3.60;100.00;99629.59;6273566;22;19907;-73
2024/01/18 06:14:57;;;;;;;;;;;;;;;-3.62;100.00;99646.41;6273694;22;19914;-73
2024/01/18 06:17:23;;;;;;;;;;;;;;;-3.68;100.00;99652.91;6273832;22;19907;-73
2024/01/18 06:19:48;;;;;;;;;;;;;;;-3.74;100.00;99649.97;6274601;22;20071;-73
2024/01/18 06:22:13;;;;;;;;;;;;;;;-3.76;100.00;99656.66;6274186;22;19911;-73
2024/01/18 06:24:38;;;;;;;;;;;;;;;-3.79;100.00;99666.66;6273439;22;19918;-73
2024/01/18 06:27:04;;;;;;;;;;;;;;;-3.81;100.00;99667.31;6273770;22;19903;-73
2024/01/18 06:29:30;;;;;;;;;;;;;;;-3.82;100.00;99666.47;6274426;22;19983;-73
2024/01/18 06:31:56;;;;;;;;;;;;;;;-3.85;100.00;99666.28;6274302;22;19903;-73
2024/01/18 06:34:21;;;;;;;;;;;;;;;-3.86;100.00;99672.13;6273531;22;19903;-73
2024/01/18 06:36:46;;;;;;;;;;;;;;;-3.86;100.00;99673.00;6273109;22;19903;-73
2024/01/18 06:39:11;;;;;;;;;;;;;;;-3.87;100.00;99678.00;6273022;22;20025;-73
2024/01/18 06:41:36;;;;;;;;;;;;;;;-3.90;100.00;99680.38;6245239;22;20245;-73
2024/01/18 06:44:02;;;;;;;;;;;;;;;-3.92;100.00;99685.34;6273767;22;19930;-73
2024/01/18 06:46:28;;;;;;;;;;;;;;;-3.94;100.00;99691.13;6273468;22;19910;-73
2024/01/18 06:48:53;;;;;;;;;;;;;;;-3.96;100.00;99688.50;6273968;22;19904;-73
2024/01/18 06:51:19;;;;;;;;;;;;;;;-3.97;100.00;99696.91;6273536;22;19903;-73
2024/01/18 06:53:45;;;;;;;;;;;;;;;-4.02;100.00;99696.63;6274591;22;19903;-73
2024/01/18 06:56:11;;;;;;;;;;;;;;;-4.06;100.00;99698.88;6273835;22;20229;-73
2024/01/18 06:58:36;;;;;;;;;;;;;;;-4.12;100.00;99701.03;6274011;22;20041;-73
2024/01/18 07:01:01;;;;;;;;;;;;;;;-4.16;100.00;99709.25;6273914;22;20268;-73
2024/01/18 07:03:30;;;;;;;;;;;;;;;-4.20;100.00;99710.72;6246449;22;19908;-73
2024/01/18 07:05:55;;;;;;;;;;;;;;;-4.21;100.00;99711.50;6273985;22;19904;-73
2024/01/18 07:08:20;;;;;;;;;;;;;;;-4.24;100.00;99717.28;6274479;22;20280;-73
2024/01/18 07:10:48;;;;;;;;;;;;;;;-4.26;100.00;99723.03;6272979;22;19910;-73
2024/01/18 07:13:13;;;;;;;;;;;;;;;-4.29;100.00;99728.81;6273704;22;19976;-73
2024/01/18 07:15:38;;;;;;;;;;;;;;;-4.31;100.00;99732.94;6246120;22;19938;-73
2024/01/18 07:18:04;;;;;;;;;;;;;;;-4.32;100.00;99732.81;6273550;22;19986;-73
2024/01/18 07:20:29;;;;;;;;;;;;;;;-4.32;100.00;99738.78;6273184;22;19957;-73
2024/01/18 07:22:55;;;;;;;;;;;;;;;-4.30;100.00;99728.72;6273976;22;20007;-73
2024/01/18 07:25:21;;;;;;;;;;;;;;;-4.32;100.00;99737.91;6246253;22;19972;-73
2024/01/18 07:27:47;;;;;;;;;;;;;;;-4.31;100.00;99744.78;6246573;22;20234;-73
2024/01/18 07:30:14;;;;;;;;;;;;;;;-4.32;100.00;99745.53;6273844;22;19910;-73
2024/01/18 07:32:39;;;;;;;;;;;;;;;-4.34;100.00;99752.16;6273997;22;20377;-73
2024/01/18 07:35:04;;;;;;;;;;;;;;;-4.37;100.00;99761.38;6273898;22;19903;-73
2024/01/18 07:37:29;;;;;;;;;;;;;;;-4.40;100.00;99765.41;6246513;22;19904;-73
2024/01/18 07:39:55;;;;;;;;;;;;;;;-4.45;100.00;99762.53;6273905;22;20238;-73
2024/01/18 07:42:20;;;;;;;;;;;;;;;-4.46;100.00;99762.44;6273390;22;20333;-73
2024/01/18 07:44:46;;;;;;;;;;;;;;;-4.48;100.00;99767.41;6273560;22;19957;-73
2024/01/18 07:47:11;;;;;;;;;;;;;;;-4.54;100.00;99772.97;6246640;22;19910;-73
2024/01/18 07:49:41;;;;;;;;;;;;;;;-4.54;100.00;99777.19;6273753;22;19914;-73
2024/01/18 07:52:06;;;;;;;;;;;;;;;-4.56;100.00;99778.75;6246385;22;19903;-73
2024/01/18 07:54:31;;;;;;;;;;;;;;;-4.60;100.00;99786.97;6273787;22;19907;-73
2024/01/18 07:56:57;;;;;;;;;;;;;;;-4.59;100.00;99789.59;6246392;22;19907;-72
2024/01/18 07:59:22;;;;;;;;;;;;;;;-4.57;100.00;99800.72;6272244;22;19938;-73
2024/01/18 08:01:47;;;;;;;;;;;;;;;-4.55;100.00;99803.38;6272630;22;20349;-73
2024/01/18 08:04:12;;;;;;;;;;;;;;;-4.56;100.00;99814.34;6244305;22;19990;-73
2024/01/18 08:06:38;;;;;;;;;;;;;;;-4.54;100.00;99812.78;6272908;22;19907;-73
2024/01/18 08:09:03;;;;;;;;;;;;;;;-4.52;100.00;99821.38;6272228;22;19907;-73
2024/01/18 08:11:28;;;;;;;;;;;;;;;-4.47;100.00;99824.25;6245863;22;19961;-73
2024/01/18 08:13:53;;;;;;;;;;;;;;;-4.45;100.00;99821.00;6272438;22;19907;-73
2024/01/18 08:16:19;;;;;;;;;;;;;;;-4.43;100.00;99822.00;6271991;22;19914;-73
2024/01/18 08:18:44;;;;;;;;;;;;;;;-4.38;100.00;99824.84;6272275;22;19941;-73
2024/01/18 08:21:09;;;;;;;;;;;;;;;-4.32;100.00;99829.47;6272715;22;19982;-73
2024/01/18 08:23:34;;;;;;;;;;;;;;;-4.26;100.00;99832.41;6245652;22;19911;-73
2024/01/18 08:26:00;;;;;;;;;;;;;;;-4.22;100.00;99835.25;6272859;22;19907;-73
2024/01/18 08:28:25;;;;;;;;;;;;;;;-4.12;100.00;99839.28;6272000;22;19914;-73
2024/01/18 08:30:51;;;;;;;;;;;;;;;-3.97;100.00;99841.06;6273086;22;19973;-73
2024/01/18 08:33:16;;;;;;;;;;;;;;;-3.74;100.00;99848.50;6273194;22;19914;-73
2024/01/18 08:35:41;;;;;;;;;;;;;;;-3.21;100.00;99851.81;6272027;22;19914;-73
2024/01/18 08:38:07;;;;;;;;;;;;;;;-2.33;100.00;99850.34;6245670;22;19903;-73
2024/01/18 08:40:33;;;;;;;;;;;;;;;-1.86;100.00;99853.00;6273081;22;20306;-73
2024/01/18 08:42:59;;;;;;;;;;;;;;;-1.00;100.00;99851.75;6273765;22;19919;-73
2024/01/18 08:45:25;;;;;;;;;;;;;;;0.36;100.00;99851.81;6245521;22;19961;-74
2024/01/18 08:47:50;;;;;;;;;;;;;;;1.69;100.00;99851.03;6272822;22;19903;-73
2024/01/18 08:50:15;;;;;;;;;;;;;;;2.66;100.00;99856.69;6273393;22;19903;-73
2024/01/18 08:52:41;;;;;;;;;;;;;;;3.15;100.00;99857.72;6273409;22;19956;-73
2024/01/18 08:55:06;;;;;;;;;;;;;;;3.76;100.00;99860.75;6272472;22;19968;-74
2024/01/18 08:57:32;;;;;;;;;;;;;;;4.13;100.00;99868.06;6273207;22;20226;-74
2024/01/18 08:59:57;;;;;;;;;;;;;;;3.80;100.00;99870.34;6272781;22;19903;-73
2024/01/18 09:02:22;;;;;;;;;;;;;;;4.12;100.00;99891.19;6271595;22;19908;-74
2024/01/18 09:04:48;;;;;;;;;;;;;;;4.62;99.34;99886.84;6269813;22;20314;-73
2024/01/18 09:07:13;;;;;;;;;;;;;;;4.87;98.91;99879.88;6269307;22;20219;-73
2024/01/18 09:09:38;;;;;;;;;;;;;;;5.00;97.35;99894.91;6242312;22;19907;-74
2024/01/18 09:12:03;;;;;;;;;;;;;;;5.34;97.37;99900.19;6271176;22;20078;-74
2024/01/18 09:14:29;;;;;;;;;;;;;;;5.39;95.33;99898.63;6246141;22;19904;-73
2024/01/18 09:16:54;;;;;;;;;;;;;;;5.04;94.35;99894.16;6273016;22;19906;-73
2024/01/18 09:19:20;;;;;;;;;;;;;;;4.45;92.71;99908.63;6273574;22;19907;-73
2024/01/18 09:21:46;;;;;;;;;;;;;;;3.56;91.93;99914.13;6246345;22;19907;-74
2024/01/18 09:24:12;;;;;;;;;;;;;;;2.73;91.54;99924.72;6273968;22;19942;-73
2024/01/18 09:26:37;;;;;;;;;;;;;;;2.05;92.37;99920.19;6273554;22;19903;-73
2024/01/18 09:29:02;;;;;;;;;;;;;;;1.44;93.87;99923.53;6273309;22;20241;-74
2024/01/18 09:31:28;;;;;;;;;;;;;;;0.86;94.43;99927.72;6246138;22;19934;-73
2024/01/18 09:33:53;;;;;;;;;;;;;;;0.45;95.35;99941.97;6275055;22;19903;-73
2024/01/18 09:36:18;;;;;;;;;;;;;;;0.08;96.65;99950.38;6247418;22;19903;-73
2024/01/18 09:38:44;;;;;;;;;;;;;;;-0.21;97.39;99959.13;6275470;22;19953;-73
2024/01/18 09:41:09;;;;;;;;;;;;;;;-0.43;98.21;99965.66;6275150;22;19940;-73
2024/01/18 09:43:37;;;;;;;;;;;;;;;-0.56;98.52;99969.22;6274709;22;19922;-73
2024/01/18 09:46:07;;;;;;;;;;;;;;;-0.64;99.83;99975.59;6274820;22;19903;-73
2024/01/18 09:48:33;;;;;;;;;;;;;;;-0.74;100.00;99978.47;6275267;22;20059;-73
2024/01/18 09:50:59;;;;;;;;;;;;;;;-0.82;100.00;99984.84;6247573;22;19907;-73
2024/01/18 09:53:24;;;;;;;;;;;;;;;-0.87;100.00;99992.25;6247889;22;19945;-73
2024/01/18 09:55:51;;;;;;;;;;;;;;;-0.90;100.00;99995.53;6275022;22;19903;-73
2024/01/18 09:58:16;;;;;;;;;;;;;;;-0.91;100.00;100001.44;6274365;22;19942;-73
2024/01/18 10:00:43;;;;;;;;;;;;;;;-0.93;100.00;100003.03;6274903;22;19904;-73
2024/01/18 10:03:08;;;;;;;;;;;;;;;-0.97;100.00;100008.78;6274331;22;19958;-73
2024/01/18 10:05:34;;;;;;;;;;;;;;;-1.00;100.00;100023.06;6274770;22;19904;-73
2024/01/18 10:07:59;;;;;;;;;;;;;;;-1.03;100.00;100021.19;6247590;22;19911;-73
2024/01/18 10:10:24;;;;;;;;;;;;;;;-1.03;100.00;100026.31;6247677;22;19899;-73
2024/01/18 10:12:50;;;;;;;;;;;;;;;-1.02;100.00;100032.31;6274699;22;19911;-73
2024/01/18 10:15:28;;;;;;;;;;;;;;;-1.03;100.00;100036.53;6247484;22;19934;-74
2024/01/18 10:17:53;;;;;;;;;;;;;;;-1.01;100.00;100045.19;6273742;22;19953;-73
2024/01/18 10:20:19;;;;;;;;;;;;;;;-0.99;100.00;100042.72;6274445;22;19911;-73
2024/01/18 10:22:45;;;;;;;;;;;;;;;-0.97;100.00;100051.34;6274666;22;19951;-73
2024/01/18 10:25:12;;;;;;;;;;;;;;;-0.94;100.00;100054.97;6274923;22;19978;-73
2024/01/18 10:27:39;;;;;;;;;;;;;;;-0.90;100.00;100059.47;6274757;22;19903;-73
2024/01/18 10:30:04;;;;;;;;;;;;;;;-0.86;100.00;100062.19;6247447;22;19903;-73
2024/01/18 10:32:32;;;;;;;;;;;;;;;-0.84;100.00;100063.16;6274559;22;19957;-73
2024/01/18 10:34:58;;;;;;;;;;;;;;;-0.80;100.00;100070.22;6274272;22;20245;-73
2024/01/18 10:37:23;;;;;;;;;;;;;;;-0.68;100.00;100068.34;6274092;22;19985;-74
2024/01/18 10:39:48;;;;;;;;;;;;;;;-0.42;100.00;100069.78;6247495;22;19956;-73
2024/01/18 10:42:14;;;;;;;;;;;;;;;0.01;100.00;100076.34;6273990;22;19915;-73
2024/01/18 10:44:43;;;;;;;;;;;;;;;0.50;100.00;100072.91;6273945;22;19981;-74
2024/01/18 10:47:13;;;;;;;;;;;;;;;0.86;100.00;100070.44;6246779;22;19986;-73
2024/01/18 10:49:40;;;;;;;;;;;;;;;1.01;100.00;100068.66;6246804;22;19934;-74
2024/01/18 10:52:07;;;;;;;;;;;;;;;1.06;100.00;100080.81;6273846;22;19907;-74
2024/01/18 10:54:33;;;;;;;;;;;;;;;1.11;100.00;100075.09;6274204;22;19910;-74
2024/01/18 10:56:59;;;;;;;;;;;;;;;1.15;100.00;100073.59;6274870;22;19903;-74
2024/01/18 10:59:26;;;;;;;;;;;;;;;1.12;100.00;100082.00;6274570;22;19959;-75
2024/01/18 11:01:52;;;;;;;;;;;;;;;1.12;100.00;100084.56;6274159;22;19918;-74
2024/01/18 11:04:18;;;;;;;;;;;;;;;1.17;100.00;100092.47;6273900;22;19930;-75
2024/01/18 11:06:44;;;;;;;;;;;;;;;1.21;100.00;100099.53;6273624;22;19953;-75
2024/01/18 11:09:12;;;;;;;;;;;;;;;1.20;100.00;100101.22;6274356;22;19909;-75
2024/01/18 11:11:38;;;;;;;;;;;;;;;1.16;100.00;100104.44;6274585;22;19914;-75
2024/01/18 11:14:03;;;;;;;;;;;;;;;1.10;100.00;100104.16;6274246;22;19903;-75
2024/01/18 11:16:30;;;;;;;;;;;;;;;1.04;100.00;100102.16;6274304;22;19903;-75
2024/01/18 11:18:59;;;;;;;;;;;;;;;0.99;100.00;100108.72;6274280;22;19996;-75
2024/01/18 11:21:36;;;;;;;;;;;;;;;0.92;100.00;100106.66;6242153;22;19974;-75
2024/01/18 11:24:05;;;;;;;;;;;;;;;0.88;100.00;100109.00;6271934;22;20310;-75
2024/01/18 11:26:31;;;;;;;;;;;;;;;0.83;100.00;100109.63;6274255;22;19903;-76
2024/01/18 11:29:15;;;;;;;;;;;;;;;0.82;100.00;100112.13;6274347;22;19957;-76
2024/01/18 11:31:50;;;;;;;;;;;;;;;0.80;100.00;100122.31;6274257;22;19903;-76
2024/01/18 11:34:28;;;;;;;;;;;;;;;0.83;100.00;100129.28;6274380;22;19907;-76
2024/01/18 11:37:07;;;;;;;;;;;;;;;0.85;100.00;100143.97;6246806;22;19953;-76
2024/01/18 11:39:47;;;;;;;;;;;;;;;0.92;100.00;100144.25;6274020;22;19910;-76
2024/01/18 11:42:26;;;;;;;;;;;;;;;0.95;100.00;100145.28;6273738;22;19939;-76
2024/01/18 11:44:58;;;;;;;;;;;;;;;0.95;100.00;100144.41;6247096;22;19910;-77
2024/01/18 11:47:24;;;;;;;;;;;;;;;0.92;100.00;100154.53;6273975;22;19913;-77
2024/01/18 11:49:49;;;;;;;;;;;;;;;0.91;100.00;100152.75;6273490;22;19970;-77
2024/01/18 11:52:15;;;;;;;;;;;;;;;0.91;100.00;100152.75;6273714;22;19903;-77
2024/01/18 11:54:42;;;;;;;;;;;;;;;0.91;100.00;100148.50;6244944;22;19907;-77
2024/01/18 11:57:12;;;;;;;;;;;;;;;0.92;100.00;100152.81;6272688;22;19950;-78
2024/01/18 11:59:41;;;;;;;;;;;;;;;0.93;100.00;100154.59;6246244;22;19903;-77
2024/01/18 12:02:07;;;;;;;;;;;;;;;0.95;100.00;100164.94;6273400;22;19924;-78
2024/01/18 12:04:32;;;;;;;;;;;;;;;0.95;100.00;100160.66;6271643;22;19932;-78
2024/01/18 12:06:57;;;;;;;;;;;;;;;0.99;100.00;100172.00;6272870;22;19914;-78
2024/01/18 12:09:22;;;;;;;;;;;;;;;1.00;100.00;100172.06;6245538;22;19925;-78
2024/01/18 12:11:48;;;;;;;;;;;;;;;1.02;100.00;100183.28;6272814;22;19907;-79
2024/01/18 12:14:13;;;;;;;;;;;;;;;1.04;100.00;100184.25;6245414;22;19912;-78
2024/01/18 12:16:39;;;;;;;;;;;;;;;1.07;100.00;100186.06;6273198;22;19910;-79
2024/01/18 12:19:05;;;;;;;;;;;;;;;1.09;100.00;100192.16;6272881;22;19913;-79
2024/01/18 12:21:31;;;;;;;;;;;;;;;1.12;100.00;100194.03;6243565;22;19927;-80
2024/01/18 12:23:59;;;;;;;;;;;;;;;1.15;100.00;100199.31;6272943;22;19910;-80
2024/01/18 12:26:25;;;;;;;;;;;;;;;1.17;100.00;100206.28;6273000;22;19911;-80
2024/01/18 12:28:51;;;;;;;;;;;;;;;1.19;100.00;100204.66;6272963;22;19931;-81
2024/01/18 12:31:16;;;;;;;;;;;;;;;1.22;100.00;100209.06;6272515;22;19918;-81